sensor_id;sensor_type;location;lat;lon;timestamp;P1;durP1;ratioP1;P2;durP2;ratioP2
34405;SDS011;20658;45.630;8.886;2023-11-22T00:00:38;51.13;;;33.60;;
34405;SDS011;20658;45.630;8.886;2023-11-22T00:03:11;47.83;;;32.20;;
34405;SDS011;20658;45.630;8.886;2023-11-22T00:05:45;53.03;;;32.40;;
34405;SDS011;20658;45.630;8.886;2023-11-22T00:08:19;48.15;;;32.55;;
34405;SDS011;20658;45.630;8.886;2023-11-22T00:10:53;47.15;;;30.02;;
34405;SDS011;20658;45.630;8.886;2023-11-22T00:13:27;49.08;;;31.67;;
34405;SDS011;20658;45.630;8.886;2023-11-22T00:16:00;47.17;;;31.15;;
34405;SDS011;20658;45.630;8.886;2023-11-22T00:18:33;49.35;;;33.28;;
34405;SDS011;20658;45.630;8.886;2023-11-22T00:21:08;50.47;;;33.20;;
34405;SDS011;20658;45.630;8.886;2023-11-22T00:23:43;48.53;;;32.55;;
34405;SDS011;20658;45.630;8.886;2023-11-22T00:26:19;47.30;;;31.58;;
34405;SDS011;20658;45.630;8.886;2023-11-22T00:28:59;46.88;;;30.13;;
34405;SDS011;20658;45.630;8.886;2023-11-22T00:31:35;52.42;;;32.65;;
34405;SDS011;20658;45.630;8.886;2023-11-22T00:34:14;50.80;;;33.00;;
34405;SDS011;20658;45.630;8.886;2023-11-22T00:36:48;51.33;;;31.35;;
34405;SDS011;20658;45.630;8.886;2023-11-22T00:39:25;47.95;;;32.40;;
34405;SDS011;20658;45.630;8.886;2023-11-22T00:42:15;55.30;;;32.22;;
34405;SDS011;20658;45.630;8.886;2023-11-22T00:45:01;47.42;;;32.97;;
34405;SDS011;20658;45.630;8.886;2023-11-22T00:47:36;50.83;;;31.65;;
34405;SDS011;20658;45.630;8.886;2023-11-22T00:50:06;53.45;;;32.30;;
34405;SDS011;20658;45.630;8.886;2023-11-22T00:52:40;50.28;;;30.17;;
34405;SDS011;20658;45.630;8.886;2023-11-22T00:55:16;46.25;;;32.17;;
34405;SDS011;20658;45.630;8.886;2023-11-22T00:57:50;45.33;;;30.13;;
34405;SDS011;20658;45.630;8.886;2023-11-22T01:00:19;50.05;;;32.15;;
34405;SDS011;20658;45.630;8.886;2023-11-22T01:02:53;49.55;;;31.35;;
34405;SDS011;20658;45.630;8.886;2023-11-22T01:05:26;46.28;;;30.05;;
34405;SDS011;20658;45.630;8.886;2023-11-22T01:08:00;57.50;;;31.98;;
34405;SDS011;20658;45.630;8.886;2023-11-22T01:10:33;56.08;;;34.58;;
34405;SDS011;20658;45.630;8.886;2023-11-22T01:13:08;53.50;;;33.25;;
34405;SDS011;20658;45.630;8.886;2023-11-22T01:15:42;45.03;;;31.55;;
34405;SDS011;20658;45.630;8.886;2023-11-22T01:18:16;54.00;;;33.13;;
34405;SDS011;20658;45.630;8.886;2023-11-22T01:20:50;47.47;;;31.23;;
34405;SDS011;20658;45.630;8.886;2023-11-22T01:23:23;49.97;;;31.73;;
34405;SDS011;20658;45.630;8.886;2023-11-22T01:25:57;45.38;;;30.80;;
34405;SDS011;20658;45.630;8.886;2023-11-22T01:28:32;49.63;;;32.22;;
34405;SDS011;20658;45.630;8.886;2023-11-22T01:31:06;51.92;;;34.28;;
34405;SDS011;20658;45.630;8.886;2023-11-22T01:33:39;52.15;;;32.47;;
34405;SDS011;20658;45.630;8.886;2023-11-22T01:36:13;50.72;;;32.65;;
34405;SDS011;20658;45.630;8.886;2023-11-22T01:38:47;48.88;;;32.88;;
34405;SDS011;20658;45.630;8.886;2023-11-22T01:41:21;48.03;;;30.48;;
34405;SDS011;20658;45.630;8.886;2023-11-22T01:43:57;52.10;;;33.75;;
34405;SDS011;20658;45.630;8.886;2023-11-22T01:46:30;58.65;;;35.72;;
34405;SDS011;20658;45.630;8.886;2023-11-22T01:49:04;51.60;;;32.50;;
34405;SDS011;20658;45.630;8.886;2023-11-22T01:51:38;53.65;;;35.20;;
34405;SDS011;20658;45.630;8.886;2023-11-22T01:54:13;60.67;;;40.20;;
34405;SDS011;20658;45.630;8.886;2023-11-22T01:56:48;54.22;;;31.67;;
34405;SDS011;20658;45.630;8.886;2023-11-22T01:59:23;49.17;;;30.88;;
34405;SDS011;20658;45.630;8.886;2023-11-22T02:01:58;45.97;;;30.38;;
34405;SDS011;20658;45.630;8.886;2023-11-22T02:04:31;47.60;;;30.67;;
34405;SDS011;20658;45.630;8.886;2023-11-22T02:07:05;48.10;;;31.75;;
34405;SDS011;20658;45.630;8.886;2023-11-22T02:09:39;53.83;;;33.75;;
34405;SDS011;20658;45.630;8.886;2023-11-22T02:12:12;51.78;;;33.60;;
34405;SDS011;20658;45.630;8.886;2023-11-22T02:14:47;51.05;;;31.88;;
34405;SDS011;20658;45.630;8.886;2023-11-22T02:17:21;54.70;;;31.92;;
34405;SDS011;20658;45.630;8.886;2023-11-22T02:20:10;48.17;;;31.92;;
34405;SDS011;20658;45.630;8.886;2023-11-22T02:22:44;49.03;;;31.10;;
34405;SDS011;20658;45.630;8.886;2023-11-22T02:25:19;48.00;;;31.10;;
34405;SDS011;20658;45.630;8.886;2023-11-22T02:27:52;47.72;;;30.48;;
34405;SDS011;20658;45.630;8.886;2023-11-22T02:30:26;47.30;;;31.08;;
34405;SDS011;20658;45.630;8.886;2023-11-22T02:32:59;53.25;;;32.70;;
34405;SDS011;20658;45.630;8.886;2023-11-22T02:35:32;48.38;;;31.58;;
34405;SDS011;20658;45.630;8.886;2023-11-22T02:38:06;56.35;;;31.65;;
34405;SDS011;20658;45.630;8.886;2023-11-22T02:40:36;48.72;;;32.97;;
34405;SDS011;20658;45.630;8.886;2023-11-22T02:43:09;47.80;;;30.95;;
34405;SDS011;20658;45.630;8.886;2023-11-22T02:45:43;54.10;;;35.25;;
34405;SDS011;20658;45.630;8.886;2023-11-22T02:48:17;51.25;;;33.75;;
34405;SDS011;20658;45.630;8.886;2023-11-22T02:50:50;53.45;;;32.80;;
34405;SDS011;20658;45.630;8.886;2023-11-22T02:53:25;48.30;;;31.95;;
34405;SDS011;20658;45.630;8.886;2023-11-22T02:56:02;51.13;;;34.95;;
34405;SDS011;20658;45.630;8.886;2023-11-22T02:58:37;52.88;;;34.25;;
34405;SDS011;20658;45.630;8.886;2023-11-22T03:01:11;53.85;;;36.00;;
34405;SDS011;20658;45.630;8.886;2023-11-22T03:03:44;60.80;;;36.50;;
34405;SDS011;20658;45.630;8.886;2023-11-22T03:06:18;56.08;;;37.22;;
34405;SDS011;20658;45.630;8.886;2023-11-22T03:08:51;60.72;;;37.03;;
34405;SDS011;20658;45.630;8.886;2023-11-22T03:11:26;56.78;;;36.42;;
34405;SDS011;20658;45.630;8.886;2023-11-22T03:14:01;55.75;;;34.92;;
34405;SDS011;20658;45.630;8.886;2023-11-22T03:16:37;58.17;;;36.30;;
34405;SDS011;20658;45.630;8.886;2023-11-22T03:19:11;56.92;;;38.20;;
34405;SDS011;20658;45.630;8.886;2023-11-22T03:21:44;49.63;;;33.78;;
34405;SDS011;20658;45.630;8.886;2023-11-22T03:24:18;54.35;;;34.20;;
34405;SDS011;20658;45.630;8.886;2023-11-22T03:26:52;55.38;;;34.15;;
34405;SDS011;20658;45.630;8.886;2023-11-22T03:29:27;49.33;;;33.83;;
34405;SDS011;20658;45.630;8.886;2023-11-22T03:32:01;52.15;;;31.45;;
34405;SDS011;20658;45.630;8.886;2023-11-22T03:34:35;52.35;;;32.88;;
34405;SDS011;20658;45.630;8.886;2023-11-22T03:37:08;48.33;;;30.65;;
34405;SDS011;20658;45.630;8.886;2023-11-22T03:39:43;52.08;;;31.40;;
34405;SDS011;20658;45.630;8.886;2023-11-22T03:42:21;47.50;;;30.55;;
34405;SDS011;20658;45.630;8.886;2023-11-22T03:44:54;50.75;;;31.38;;
34405;SDS011;20658;45.630;8.886;2023-11-22T03:47:30;47.10;;;30.63;;
34405;SDS011;20658;45.630;8.886;2023-11-22T03:49:59;47.67;;;29.88;;
34405;SDS011;20658;45.630;8.886;2023-11-22T03:52:32;44.08;;;27.95;;
34405;SDS011;20658;45.630;8.886;2023-11-22T03:55:06;43.22;;;25.73;;
34405;SDS011;20658;45.630;8.886;2023-11-22T03:57:42;36.85;;;22.65;;
34405;SDS011;20658;45.630;8.886;2023-11-22T04:00:16;36.17;;;23.40;;
34405;SDS011;20658;45.630;8.886;2023-11-22T04:02:51;37.38;;;23.60;;
34405;SDS011;20658;45.630;8.886;2023-11-22T04:05:25;34.28;;;21.27;;
34405;SDS011;20658;45.630;8.886;2023-11-22T04:07:59;46.85;;;27.58;;
34405;SDS011;20658;45.630;8.886;2023-11-22T04:10:32;40.45;;;24.85;;
34405;SDS011;20658;45.630;8.886;2023-11-22T04:13:07;43.00;;;27.63;;
34405;SDS011;20658;45.630;8.886;2023-11-22T04:15:40;38.75;;;24.15;;
34405;SDS011;20658;45.630;8.886;2023-11-22T04:18:13;40.10;;;23.02;;
34405;SDS011;20658;45.630;8.886;2023-11-22T04:20:46;36.72;;;22.90;;
34405;SDS011;20658;45.630;8.886;2023-11-22T04:23:20;46.38;;;23.10;;
34405;SDS011;20658;45.630;8.886;2023-11-22T04:25:53;39.00;;;22.63;;
34405;SDS011;20658;45.630;8.886;2023-11-22T04:28:28;39.15;;;22.58;;
34405;SDS011;20658;45.630;8.886;2023-11-22T04:31:02;36.58;;;20.40;;
34405;SDS011;20658;45.630;8.886;2023-11-22T04:33:35;41.53;;;20.45;;
34405;SDS011;20658;45.630;8.886;2023-11-22T04:36:09;33.95;;;19.75;;
34405;SDS011;20658;45.630;8.886;2023-11-22T04:38:43;33.90;;;21.20;;
34405;SDS011;20658;45.630;8.886;2023-11-22T04:41:16;36.25;;;21.65;;
34405;SDS011;20658;45.630;8.886;2023-11-22T04:43:52;37.95;;;22.63;;
34405;SDS011;20658;45.630;8.886;2023-11-22T04:46:25;39.42;;;23.83;;
34405;SDS011;20658;45.630;8.886;2023-11-22T04:48:59;40.60;;;23.50;;
34405;SDS011;20658;45.630;8.886;2023-11-22T04:51:32;39.38;;;24.42;;
34405;SDS011;20658;45.630;8.886;2023-11-22T04:54:06;45.63;;;25.73;;
34405;SDS011;20658;45.630;8.886;2023-11-22T04:56:39;43.75;;;26.08;;
34405;SDS011;20658;45.630;8.886;2023-11-22T04:59:14;45.72;;;26.38;;
34405;SDS011;20658;45.630;8.886;2023-11-22T05:01:47;43.47;;;26.30;;
34405;SDS011;20658;45.630;8.886;2023-11-22T05:04:20;43.13;;;26.27;;
34405;SDS011;20658;45.630;8.886;2023-11-22T05:06:54;42.95;;;24.95;;
34405;SDS011;20658;45.630;8.886;2023-11-22T05:09:27;41.40;;;26.52;;
34405;SDS011;20658;45.630;8.886;2023-11-22T05:12:00;40.92;;;24.35;;
34405;SDS011;20658;45.630;8.886;2023-11-22T05:14:36;44.28;;;27.02;;
34405;SDS011;20658;45.630;8.886;2023-11-22T05:17:09;43.70;;;25.92;;
34405;SDS011;20658;45.630;8.886;2023-11-22T05:19:43;47.30;;;27.00;;
34405;SDS011;20658;45.630;8.886;2023-11-22T05:22:17;45.60;;;26.25;;
34405;SDS011;20658;45.630;8.886;2023-11-22T05:24:50;48.72;;;28.90;;
34405;SDS011;20658;45.630;8.886;2023-11-22T05:27:19;44.75;;;28.83;;
34405;SDS011;20658;45.630;8.886;2023-11-22T05:29:53;46.42;;;27.75;;
34405;SDS011;20658;45.630;8.886;2023-11-22T05:32:27;47.83;;;29.42;;
34405;SDS011;20658;45.630;8.886;2023-11-22T05:35:02;44.60;;;27.58;;
34405;SDS011;20658;45.630;8.886;2023-11-22T05:37:32;48.17;;;27.85;;
34405;SDS011;20658;45.630;8.886;2023-11-22T05:40:06;43.75;;;27.80;;
34405;SDS011;20658;45.630;8.886;2023-11-22T05:42:42;43.65;;;28.38;;
34405;SDS011;20658;45.630;8.886;2023-11-22T05:45:17;42.53;;;27.10;;
34405;SDS011;20658;45.630;8.886;2023-11-22T05:47:45;45.70;;;29.55;;
34405;SDS011;20658;45.630;8.886;2023-11-22T05:50:18;44.97;;;29.40;;
34405;SDS011;20658;45.630;8.886;2023-11-22T05:52:52;42.83;;;29.92;;
34405;SDS011;20658;45.630;8.886;2023-11-22T05:55:25;48.05;;;29.13;;
34405;SDS011;20658;45.630;8.886;2023-11-22T05:57:59;46.22;;;28.98;;
34405;SDS011;20658;45.630;8.886;2023-11-22T06:00:33;49.53;;;29.17;;
34405;SDS011;20658;45.630;8.886;2023-11-22T06:05:37;48.83;;;29.70;;
34405;SDS011;20658;45.630;8.886;2023-11-22T06:08:11;47.42;;;29.05;;
34405;SDS011;20658;45.630;8.886;2023-11-22T06:10:44;48.78;;;30.23;;
34405;SDS011;20658;45.630;8.886;2023-11-22T06:13:18;49.53;;;30.55;;
34405;SDS011;20658;45.630;8.886;2023-11-22T06:15:52;46.55;;;29.92;;
34405;SDS011;20658;45.630;8.886;2023-11-22T06:18:26;51.22;;;30.30;;
34405;SDS011;20658;45.630;8.886;2023-11-22T06:21:01;51.63;;;32.53;;
34405;SDS011;20658;45.630;8.886;2023-11-22T06:23:34;49.97;;;33.03;;
34405;SDS011;20658;45.630;8.886;2023-11-22T06:26:08;53.97;;;35.30;;
34405;SDS011;20658;45.630;8.886;2023-11-22T06:28:41;55.17;;;33.38;;
34405;SDS011;20658;45.630;8.886;2023-11-22T06:31:18;54.30;;;33.88;;
34405;SDS011;20658;45.630;8.886;2023-11-22T06:33:51;56.97;;;33.72;;
34405;SDS011;20658;45.630;8.886;2023-11-22T06:36:25;61.92;;;34.35;;
34405;SDS011;20658;45.630;8.886;2023-11-22T06:38:59;58.30;;;37.67;;
34405;SDS011;20658;45.630;8.886;2023-11-22T06:41:32;54.47;;;32.60;;
34405;SDS011;20658;45.630;8.886;2023-11-22T06:44:06;51.45;;;31.75;;
34405;SDS011;20658;45.630;8.886;2023-11-22T06:46:40;63.22;;;43.80;;
34405;SDS011;20658;45.630;8.886;2023-11-22T06:49:14;58.83;;;34.38;;
34405;SDS011;20658;45.630;8.886;2023-11-22T06:51:47;59.95;;;33.33;;
34405;SDS011;20658;45.630;8.886;2023-11-22T06:54:20;54.08;;;34.72;;
34405;SDS011;20658;45.630;8.886;2023-11-22T06:56:49;74.45;;;36.28;;
34405;SDS011;20658;45.630;8.886;2023-11-22T06:59:22;58.10;;;34.92;;
34405;SDS011;20658;45.630;8.886;2023-11-22T07:01:57;55.05;;;34.70;;
34405;SDS011;20658;45.630;8.886;2023-11-22T07:04:30;54.25;;;32.90;;
34405;SDS011;20658;45.630;8.886;2023-11-22T07:07:03;53.58;;;33.53;;
34405;SDS011;20658;45.630;8.886;2023-11-22T07:09:37;55.67;;;33.95;;
34405;SDS011;20658;45.630;8.886;2023-11-22T07:12:14;101.60;;;46.63;;
34405;SDS011;20658;45.630;8.886;2023-11-22T07:14:47;77.35;;;38.28;;
34405;SDS011;20658;45.630;8.886;2023-11-22T07:17:23;58.80;;;33.60;;
34405;SDS011;20658;45.630;8.886;2023-11-22T07:19:50;61.33;;;35.03;;
34405;SDS011;20658;45.630;8.886;2023-11-22T07:22:19;72.18;;;41.20;;
34405;SDS011;20658;45.630;8.886;2023-11-22T07:24:50;70.22;;;38.17;;
34405;SDS011;20658;45.630;8.886;2023-11-22T07:27:20;67.03;;;40.00;;
34405;SDS011;20658;45.630;8.886;2023-11-22T07:29:48;63.63;;;36.88;;
34405;SDS011;20658;45.630;8.886;2023-11-22T07:32:18;63.15;;;36.30;;
34405;SDS011;20658;45.630;8.886;2023-11-22T07:34:49;50.22;;;29.42;;
34405;SDS011;20658;45.630;8.886;2023-11-22T07:37:27;44.85;;;30.15;;
34405;SDS011;20658;45.630;8.886;2023-11-22T07:40:00;48.45;;;30.48;;
34405;SDS011;20658;45.630;8.886;2023-11-22T07:42:34;46.17;;;28.58;;
34405;SDS011;20658;45.630;8.886;2023-11-22T07:45:08;45.47;;;27.95;;
34405;SDS011;20658;45.630;8.886;2023-11-22T07:47:38;45.33;;;28.80;;
34405;SDS011;20658;45.630;8.886;2023-11-22T07:50:09;43.90;;;26.98;;
34405;SDS011;20658;45.630;8.886;2023-11-22T07:52:44;42.00;;;25.52;;
34405;SDS011;20658;45.630;8.886;2023-11-22T07:55:17;40.58;;;26.48;;
34405;SDS011;20658;45.630;8.886;2023-11-22T07:57:46;41.22;;;26.88;;
34405;SDS011;20658;45.630;8.886;2023-11-22T08:00:22;39.75;;;26.83;;
34405;SDS011;20658;45.630;8.886;2023-11-22T08:02:55;39.13;;;25.63;;
34405;SDS011;20658;45.630;8.886;2023-11-22T08:05:30;45.58;;;28.13;;
34405;SDS011;20658;45.630;8.886;2023-11-22T08:08:05;47.15;;;28.38;;
34405;SDS011;20658;45.630;8.886;2023-11-22T08:10:39;41.15;;;24.88;;
34405;SDS011;20658;45.630;8.886;2023-11-22T08:13:13;41.28;;;26.00;;
34405;SDS011;20658;45.630;8.886;2023-11-22T08:15:47;37.70;;;25.38;;
34405;SDS011;20658;45.630;8.886;2023-11-22T08:18:21;45.15;;;29.55;;
34405;SDS011;20658;45.630;8.886;2023-11-22T08:20:55;45.40;;;28.67;;
34405;SDS011;20658;45.630;8.886;2023-11-22T08:23:30;41.92;;;26.65;;
34405;SDS011;20658;45.630;8.886;2023-11-22T08:25:58;41.28;;;25.50;;
34405;SDS011;20658;45.630;8.886;2023-11-22T08:28:32;47.10;;;25.23;;
34405;SDS011;20658;45.630;8.886;2023-11-22T08:31:01;44.75;;;24.75;;
34405;SDS011;20658;45.630;8.886;2023-11-22T08:33:35;40.55;;;24.30;;
34405;SDS011;20658;45.630;8.886;2023-11-22T08:36:10;37.83;;;22.80;;
34405;SDS011;20658;45.630;8.886;2023-11-22T08:38:44;36.65;;;22.40;;
34405;SDS011;20658;45.630;8.886;2023-11-22T08:41:17;34.42;;;21.98;;
34405;SDS011;20658;45.630;8.886;2023-11-22T08:43:51;35.67;;;21.05;;
34405;SDS011;20658;45.630;8.886;2023-11-22T08:46:24;33.13;;;19.75;;
34405;SDS011;20658;45.630;8.886;2023-11-22T08:48:58;34.13;;;20.15;;
34405;SDS011;20658;45.630;8.886;2023-11-22T08:51:35;38.10;;;22.25;;
34405;SDS011;20658;45.630;8.886;2023-11-22T08:54:08;43.22;;;27.25;;
34405;SDS011;20658;45.630;8.886;2023-11-22T08:56:42;36.60;;;24.50;;
34405;SDS011;20658;45.630;8.886;2023-11-22T08:59:17;40.92;;;23.65;;
34405;SDS011;20658;45.630;8.886;2023-11-22T09:01:51;42.95;;;21.38;;
34405;SDS011;20658;45.630;8.886;2023-11-22T09:04:24;38.72;;;21.40;;
34405;SDS011;20658;45.630;8.886;2023-11-22T09:07:01;35.22;;;21.80;;
34405;SDS011;20658;45.630;8.886;2023-11-22T09:09:34;37.95;;;22.25;;
34405;SDS011;20658;45.630;8.886;2023-11-22T09:12:08;45.38;;;20.30;;
34405;SDS011;20658;45.630;8.886;2023-11-22T09:14:43;45.65;;;19.67;;
34405;SDS011;20658;45.630;8.886;2023-11-22T09:17:17;34.00;;;18.35;;
34405;SDS011;20658;45.630;8.886;2023-11-22T09:19:52;45.78;;;16.70;;
34405;SDS011;20658;45.630;8.886;2023-11-22T09:22:28;29.60;;;17.10;;
34405;SDS011;20658;45.630;8.886;2023-11-22T09:25:02;28.73;;;13.93;;
34405;SDS011;20658;45.630;8.886;2023-11-22T09:27:34;24.30;;;12.60;;
34405;SDS011;20658;45.630;8.886;2023-11-22T09:30:09;24.50;;;11.43;;
34405;SDS011;20658;45.630;8.886;2023-11-22T09:32:51;23.40;;;11.90;;
34405;SDS011;20658;45.630;8.886;2023-11-22T09:35:25;20.50;;;10.07;;
34405;SDS011;20658;45.630;8.886;2023-11-22T09:38:02;17.60;;;8.75;;
34405;SDS011;20658;45.630;8.886;2023-11-22T09:40:39;17.27;;;8.82;;
34405;SDS011;20658;45.630;8.886;2023-11-22T09:43:15;18.10;;;9.60;;
34405;SDS011;20658;45.630;8.886;2023-11-22T09:45:49;31.80;;;11.60;;
34405;SDS011;20658;45.630;8.886;2023-11-22T09:48:26;20.50;;;9.57;;
34405;SDS011;20658;45.630;8.886;2023-11-22T09:50:57;20.02;;;8.88;;
34405;SDS011;20658;45.630;8.886;2023-11-22T09:53:40;19.98;;;8.60;;
34405;SDS011;20658;45.630;8.886;2023-11-22T09:56:19;18.38;;;8.23;;
34405;SDS011;20658;45.630;8.886;2023-11-22T09:58:54;17.38;;;8.00;;
34405;SDS011;20658;45.630;8.886;2023-11-22T10:01:29;17.20;;;7.97;;
34405;SDS011;20658;45.630;8.886;2023-11-22T10:04:04;18.58;;;8.20;;
34405;SDS011;20658;45.630;8.886;2023-11-22T10:06:38;17.88;;;7.72;;
34405;SDS011;20658;45.630;8.886;2023-11-22T10:09:13;18.42;;;7.68;;
34405;SDS011;20658;45.630;8.886;2023-11-22T10:11:47;15.40;;;6.82;;
34405;SDS011;20658;45.630;8.886;2023-11-22T10:14:24;15.70;;;6.45;;
34405;SDS011;20658;45.630;8.886;2023-11-22T10:16:58;13.00;;;6.15;;
34405;SDS011;20658;45.630;8.886;2023-11-22T10:19:32;11.07;;;4.88;;
34405;SDS011;20658;45.630;8.886;2023-11-22T10:22:05;11.88;;;5.22;;
34405;SDS011;20658;45.630;8.886;2023-11-22T10:24:41;15.07;;;5.15;;
34405;SDS011;20658;45.630;8.886;2023-11-22T10:27:18;11.68;;;4.57;;
34405;SDS011;20658;45.630;8.886;2023-11-22T10:29:52;9.43;;;4.68;;
34405;SDS011;20658;45.630;8.886;2023-11-22T10:32:25;9.82;;;4.25;;
34405;SDS011;20658;45.630;8.886;2023-11-22T10:34:59;12.77;;;4.70;;
34405;SDS011;20658;45.630;8.886;2023-11-22T10:37:32;13.60;;;5.80;;
34405;SDS011;20658;45.630;8.886;2023-11-22T10:40:08;21.02;;;6.53;;
34405;SDS011;20658;45.630;8.886;2023-11-22T10:42:43;12.52;;;5.75;;
34405;SDS011;20658;45.630;8.886;2023-11-22T10:47:48;16.17;;;5.35;;
34405;SDS011;20658;45.630;8.886;2023-11-22T10:50:25;27.98;;;5.95;;
34405;SDS011;20658;45.630;8.886;2023-11-22T10:52:56;15.10;;;3.63;;
34405;SDS011;20658;45.630;8.886;2023-11-22T10:55:33;10.07;;;3.50;;
34405;SDS011;20658;45.630;8.886;2023-11-22T10:58:10;16.60;;;4.60;;
34405;SDS011;20658;45.630;8.886;2023-11-22T11:00:47;14.63;;;5.18;;
34405;SDS011;20658;45.630;8.886;2023-11-22T11:03:22;16.60;;;5.13;;
34405;SDS011;20658;45.630;8.886;2023-11-22T11:06:02;12.43;;;5.10;;
34405;SDS011;20658;45.630;8.886;2023-11-22T11:08:37;12.27;;;5.53;;
34405;SDS011;20658;45.630;8.886;2023-11-22T11:11:12;13.80;;;5.88;;
34405;SDS011;20658;45.630;8.886;2023-11-22T11:13:46;9.27;;;4.43;;
34405;SDS011;20658;45.630;8.886;2023-11-22T11:16:20;9.98;;;5.15;;
34405;SDS011;20658;45.630;8.886;2023-11-22T11:18:56;14.52;;;4.95;;
34405;SDS011;20658;45.630;8.886;2023-11-22T11:21:24;12.13;;;4.80;;
34405;SDS011;20658;45.630;8.886;2023-11-22T11:23:53;9.95;;;4.88;;
34405;SDS011;20658;45.630;8.886;2023-11-22T11:26:31;11.05;;;5.15;;
34405;SDS011;20658;45.630;8.886;2023-11-22T11:29:07;12.20;;;5.47;;
34405;SDS011;20658;45.630;8.886;2023-11-22T11:31:59;12.45;;;5.40;;
34405;SDS011;20658;45.630;8.886;2023-11-22T11:34:37;12.73;;;5.85;;
34405;SDS011;20658;45.630;8.886;2023-11-22T11:37:21;13.32;;;5.50;;
34405;SDS011;20658;45.630;8.886;2023-11-22T11:39:54;12.48;;;5.20;;
34405;SDS011;20658;45.630;8.886;2023-11-22T11:42:29;9.73;;;5.38;;
34405;SDS011;20658;45.630;8.886;2023-11-22T11:45:04;13.60;;;5.82;;
34405;SDS011;20658;45.630;8.886;2023-11-22T11:47:34;13.05;;;6.18;;
34405;SDS011;20658;45.630;8.886;2023-11-22T11:50:07;13.90;;;6.50;;
34405;SDS011;20658;45.630;8.886;2023-11-22T11:52:40;16.08;;;7.90;;
34405;SDS011;20658;45.630;8.886;2023-11-22T11:55:14;16.83;;;7.88;;
34405;SDS011;20658;45.630;8.886;2023-11-22T11:57:44;16.17;;;7.93;;
34405;SDS011;20658;45.630;8.886;2023-11-22T12:00:13;12.90;;;7.00;;
34405;SDS011;20658;45.630;8.886;2023-11-22T12:02:48;15.77;;;7.68;;
34405;SDS011;20658;45.630;8.886;2023-11-22T12:05:21;13.35;;;6.95;;
34405;SDS011;20658;45.630;8.886;2023-11-22T12:07:51;16.33;;;7.60;;
34405;SDS011;20658;45.630;8.886;2023-11-22T12:10:19;12.30;;;6.90;;
34405;SDS011;20658;45.630;8.886;2023-11-22T12:12:49;14.15;;;6.38;;
34405;SDS011;20658;45.630;8.886;2023-11-22T12:15:23;16.55;;;6.50;;
34405;SDS011;20658;45.630;8.886;2023-11-22T12:17:57;18.95;;;7.45;;
34405;SDS011;20658;45.630;8.886;2023-11-22T12:20:27;13.55;;;6.03;;
34405;SDS011;20658;45.630;8.886;2023-11-22T12:23:02;13.85;;;6.72;;
34405;SDS011;20658;45.630;8.886;2023-11-22T12:25:36;15.75;;;7.13;;
34405;SDS011;20658;45.630;8.886;2023-11-22T12:28:06;13.98;;;7.05;;
34405;SDS011;20658;45.630;8.886;2023-11-22T12:30:40;14.52;;;6.38;;
34405;SDS011;20658;45.630;8.886;2023-11-22T12:33:13;17.05;;;6.53;;
34405;SDS011;20658;45.630;8.886;2023-11-22T12:35:49;16.73;;;8.73;;
34405;SDS011;20658;45.630;8.886;2023-11-22T12:38:23;16.05;;;9.38;;
34405;SDS011;20658;45.630;8.886;2023-11-22T12:40:52;19.85;;;8.73;;
34405;SDS011;20658;45.630;8.886;2023-11-22T12:43:31;17.67;;;10.02;;
34405;SDS011;20658;45.630;8.886;2023-11-22T12:46:05;20.98;;;10.77;;
34405;SDS011;20658;45.630;8.886;2023-11-22T12:48:42;19.88;;;10.32;;
34405;SDS011;20658;45.630;8.886;2023-11-22T12:51:16;19.58;;;9.73;;
34405;SDS011;20658;45.630;8.886;2023-11-22T12:53:58;19.50;;;10.20;;
34405;SDS011;20658;45.630;8.886;2023-11-22T12:56:32;19.55;;;10.23;;
34405;SDS011;20658;45.630;8.886;2023-11-22T12:59:02;19.50;;;10.93;;
34405;SDS011;20658;45.630;8.886;2023-11-22T13:01:35;19.10;;;10.55;;
34405;SDS011;20658;45.630;8.886;2023-11-22T13:04:09;21.88;;;9.82;;
34405;SDS011;20658;45.630;8.886;2023-11-22T13:06:43;20.23;;;9.70;;
34405;SDS011;20658;45.630;8.886;2023-11-22T13:09:16;18.55;;;10.70;;
34405;SDS011;20658;45.630;8.886;2023-11-22T13:11:49;16.00;;;9.73;;
34405;SDS011;20658;45.630;8.886;2023-11-22T13:14:24;17.73;;;9.77;;
34405;SDS011;20658;45.630;8.886;2023-11-22T13:17:03;18.80;;;10.05;;
34405;SDS011;20658;45.630;8.886;2023-11-22T13:19:38;19.13;;;10.27;;
34405;SDS011;20658;45.630;8.886;2023-11-22T13:22:12;15.68;;;8.88;;
34405;SDS011;20658;45.630;8.886;2023-11-22T13:24:40;20.70;;;9.73;;
34405;SDS011;20658;45.630;8.886;2023-11-22T13:27:14;18.45;;;9.48;;
34405;SDS011;20658;45.630;8.886;2023-11-22T13:29:49;22.92;;;11.43;;
34405;SDS011;20658;45.630;8.886;2023-11-22T13:32:19;23.88;;;11.00;;
34405;SDS011;20658;45.630;8.886;2023-11-22T13:34:52;22.92;;;11.45;;
34405;SDS011;20658;45.630;8.886;2023-11-22T13:37:22;24.08;;;11.35;;
34405;SDS011;20658;45.630;8.886;2023-11-22T13:39:55;17.08;;;9.07;;
34405;SDS011;20658;45.630;8.886;2023-11-22T13:42:29;20.23;;;9.40;;
34405;SDS011;20658;45.630;8.886;2023-11-22T13:45:04;18.73;;;9.02;;
34405;SDS011;20658;45.630;8.886;2023-11-22T13:47:38;16.20;;;9.25;;
34405;SDS011;20658;45.630;8.886;2023-11-22T13:50:12;18.75;;;9.60;;
34405;SDS011;20658;45.630;8.886;2023-11-22T13:52:45;21.77;;;9.82;;
34405;SDS011;20658;45.630;8.886;2023-11-22T13:55:14;17.17;;;9.05;;
34405;SDS011;20658;45.630;8.886;2023-11-22T13:57:51;18.75;;;9.63;;
34405;SDS011;20658;45.630;8.886;2023-11-22T14:00:27;19.10;;;9.95;;
34405;SDS011;20658;45.630;8.886;2023-11-22T14:03:06;19.35;;;9.48;;
34405;SDS011;20658;45.630;8.886;2023-11-22T14:05:39;19.75;;;10.05;;
34405;SDS011;20658;45.630;8.886;2023-11-22T14:08:12;18.05;;;9.35;;
34405;SDS011;20658;45.630;8.886;2023-11-22T14:10:46;19.95;;;11.00;;
34405;SDS011;20658;45.630;8.886;2023-11-22T14:13:19;18.30;;;9.85;;
34405;SDS011;20658;45.630;8.886;2023-11-22T14:15:54;21.65;;;12.13;;
34405;SDS011;20658;45.630;8.886;2023-11-22T14:18:28;20.88;;;11.38;;
34405;SDS011;20658;45.630;8.886;2023-11-22T14:21:02;23.02;;;11.07;;
34405;SDS011;20658;45.630;8.886;2023-11-22T14:23:36;21.88;;;11.50;;
34405;SDS011;20658;45.630;8.886;2023-11-22T14:26:09;19.95;;;11.02;;
34405;SDS011;20658;45.630;8.886;2023-11-22T14:28:38;16.65;;;9.60;;
34405;SDS011;20658;45.630;8.886;2023-11-22T14:31:09;19.25;;;10.65;;
34405;SDS011;20658;45.630;8.886;2023-11-22T14:33:43;19.70;;;9.90;;
34405;SDS011;20658;45.630;8.886;2023-11-22T14:36:17;21.70;;;10.25;;
34405;SDS011;20658;45.630;8.886;2023-11-22T14:38:50;18.38;;;10.50;;
34405;SDS011;20658;45.630;8.886;2023-11-22T14:41:22;18.45;;;10.13;;
34405;SDS011;20658;45.630;8.886;2023-11-22T14:43:58;20.48;;;11.32;;
34405;SDS011;20658;45.630;8.886;2023-11-22T14:46:34;23.17;;;11.32;;
34405;SDS011;20658;45.630;8.886;2023-11-22T14:49:03;20.40;;;11.75;;
34405;SDS011;20658;45.630;8.886;2023-11-22T14:51:37;23.48;;;12.13;;
34405;SDS011;20658;45.630;8.886;2023-11-22T14:54:10;26.83;;;13.48;;
34405;SDS011;20658;45.630;8.886;2023-11-22T14:56:44;23.08;;;12.20;;
34405;SDS011;20658;45.630;8.886;2023-11-22T14:59:13;21.27;;;11.00;;
34405;SDS011;20658;45.630;8.886;2023-11-22T15:01:50;25.85;;;12.23;;
34405;SDS011;20658;45.630;8.886;2023-11-22T15:04:26;20.77;;;11.13;;
34405;SDS011;20658;45.630;8.886;2023-11-22T15:07:01;21.83;;;11.40;;
34405;SDS011;20658;45.630;8.886;2023-11-22T15:09:34;22.73;;;13.45;;